Ocean King D — V7TV6 — position and weather

sailwx.info

Track history (hours):
 
Tides and Currents Weather Stations Pressure Air Temp Water Temp Dewpoint Dewpoint Depression Visibility Wind Speed Wind Dir Waves Ship Positions

Ocean King D

Last reported at 2015-May-20 18:24 UTC. Time now 2015-May-26 15:49 UTC.
Position N 01°15' E 104°03'.

Length 190 m; draft 11.9 m.

Type: Cargo ship. MMSI: 538003892.

Date/timePositionNaut miles runAvg speedWind from/ knotsBaromVisibWave heightAir tempDewpointWater temp
2015-May-20 18:24N 01°15' E 104°03'5 5.6
2015-May-20 17:33N 01°17' E 103°58'0 0.2
2015-May-20 16:28N 01°17' E 103°58'0 0.0
2015-May-20 15:22N 01°17' E 103°58'0 0.0
2015-May-20 14:28N 01°17' E 103°58'0 0.0
2015-May-20 12:28N 01°17' E 103°58'0 0.0
2015-May-20 11:16N 01°17' E 103°58'0 0.1
2015-May-20 10:16N 01°17' E 103°58'0 0.0
2015-May-20 09:16N 01°17' E 103°58'0 0.2
2015-May-20 08:28N 01°17' E 103°58'0 0.1
2015-May-20 06:25N 01°17' E 103°59'0 0.1
2015-May-20 05:28N 01°17' E 103°58'0 0.0
2015-May-20 03:11N 01°17' E 103°58'0 0.1
2015-May-20 01:32N 01°17' E 103°59'1 1.1
2015-May-20 00:32N 01°16' E 103°59'3 3.0
2015-May-19 23:32N 01°13' E 103°57'3 2.7
2015-May-19 22:33N 01°12' E 103°54'  
Track history (hours):
 
Tides and Currents Weather Stations Pressure Air Temp Water Temp Dewpoint Dewpoint Depression Visibility Wind Speed Wind Dir Waves Ship Positions

Ocean King D

Last reported at 2015-May-20 18:24 UTC. Time now 2015-May-26 15:49 UTC.
Position N 01°15' E 104°03'.

Length 190 m; draft 11.9 m.

Type: Cargo ship. MMSI: 538003892.

Date/timePositionNaut miles runAvg speedWind from/ knotsBaromVisibWave heightAir tempDewpointWater temp
2015-May-20 18:24N 01°15' E 104°03'5 5.6
2015-May-20 17:33N 01°17' E 103°58'0 0.2
2015-May-20 16:28N 01°17' E 103°58'0 0.0
2015-May-20 15:22N 01°17' E 103°58'0 0.0
2015-May-20 14:28N 01°17' E 103°58'0 0.0
2015-May-20 12:28N 01°17' E 103°58'0 0.0
2015-May-20 11:16N 01°17' E 103°58'0 0.1
2015-May-20 10:16N 01°17' E 103°58'0 0.0
2015-May-20 09:16N 01°17' E 103°58'0 0.2
2015-May-20 08:28N 01°17' E 103°58'0 0.1
2015-May-20 06:25N 01°17' E 103°59'0 0.1
2015-May-20 05:28N 01°17' E 103°58'0 0.0
2015-May-20 03:11N 01°17' E 103°58'0 0.1
2015-May-20 01:32N 01°17' E 103°59'1 1.1
2015-May-20 00:32N 01°16' E 103°59'3 3.0
2015-May-19 23:32N 01°13' E 103°57'3 2.7
2015-May-19 22:33N 01°12' E 103°54'  

Dump ship's entire track history